AVA110 SUMU-SKBO
Flight info
| Callsign | AVA110 |
|---|---|
| Flight time | N/A |
| Altitude | 36000 |
| Route | MONSA UP526 GEMSU UZ120 SIS UM784 LOKOX UL417 PABON UP530 VVC W17 EGEPI EGEPI3R |
| Aircraft | A320/M-SDE3FGHIRWY/LB1 |
Departure
| Time | N/A |
|---|---|
| Airport | Carrasco General Cesáreo L. Berisso International Airport (SUMU) |
Arrival
| Time | 2026-05-03 23:41 |
|---|---|
| Airport | El Dorado International Airport (SKBO) |
| Time | Latitude | Longitude | Altitude | Speed | Heading |
|---|---|---|---|---|---|
| 2026-05-03 20:15 | -18.21458 | -64.90282 | 38104 ft | 443 kts | 326° |
| 2026-05-03 20:15 | -18.16114 | -64.93528 | 38113 ft | 444 kts | 326° |
| 2026-05-03 20:16 | -18.10755 | -64.96777 | 38127 ft | 445 kts | 326° |
| 2026-05-03 20:16 | -18.05398 | -65.00030 | 38133 ft | 445 kts | 326° |
| 2026-05-03 20:17 | -18.00037 | -65.03280 | 38140 ft | 445 kts | 326° |
| 2026-05-03 20:17 | -17.94668 | -65.06535 | 38160 ft | 446 kts | 326° |
| 2026-05-03 20:18 | -17.89333 | -65.09774 | 38175 ft | 446 kts | 326° |
| 2026-05-03 20:18 | -17.83954 | -65.13033 | 38192 ft | 447 kts | 326° |
| 2026-05-03 20:19 | -17.78561 | -65.16291 | 38217 ft | 447 kts | 326° |
| 2026-05-03 20:19 | -17.73161 | -65.19549 | 38233 ft | 448 kts | 327° |
| 2026-05-03 20:20 | -17.67760 | -65.22806 | 38257 ft | 448 kts | 326° |
| 2026-05-03 20:20 | -17.62351 | -65.26083 | 38271 ft | 449 kts | 326° |
| 2026-05-03 20:21 | -17.56954 | -65.29371 | 38294 ft | 450 kts | 326° |
| 2026-05-03 20:21 | -17.51540 | -65.32669 | 38302 ft | 450 kts | 326° |
| 2026-05-03 20:22 | -17.46128 | -65.35953 | 38297 ft | 450 kts | 327° |
| 2026-05-03 20:22 | -17.40700 | -65.39252 | 38293 ft | 450 kts | 326° |
| 2026-05-03 20:23 | -17.35307 | -65.42527 | 38290 ft | 451 kts | 326° |
| 2026-05-03 20:23 | -17.29885 | -65.45822 | 38288 ft | 451 kts | 326° |
| 2026-05-03 20:24 | -17.24448 | -65.49121 | 38292 ft | 451 kts | 326° |
| 2026-05-03 20:24 | -17.19009 | -65.52424 | 38261 ft | 452 kts | 326° |
| 2026-05-03 20:25 | -17.13566 | -65.55726 | 38278 ft | 452 kts | 327° |
| 2026-05-03 20:25 | -17.08153 | -65.59000 | 38271 ft | 452 kts | 327° |
| 2026-05-03 20:26 | -17.02709 | -65.62306 | 38269 ft | 452 kts | 326° |
| 2026-05-03 20:26 | -16.97280 | -65.65624 | 38258 ft | 453 kts | 326° |
| 2026-05-03 20:27 | -16.91836 | -65.68943 | 38246 ft | 453 kts | 326° |
| 2026-05-03 20:27 | -16.86376 | -65.72248 | 38233 ft | 453 kts | 326° |
| 2026-05-03 20:28 | -16.80613 | -65.74975 | 38220 ft | 459 kts | 340° |
| 2026-05-03 20:28 | -16.74481 | -65.76892 | 38211 ft | 459 kts | 339° |
| 2026-05-03 20:29 | -16.68356 | -65.78806 | 38202 ft | 460 kts | 340° |
| 2026-05-03 20:29 | -16.62266 | -65.80711 | 38193 ft | 460 kts | 340° |
| 2026-05-03 20:30 | -16.56131 | -65.82625 | 38183 ft | 460 kts | 340° |
| 2026-05-03 20:30 | -16.49993 | -65.84543 | 38171 ft | 460 kts | 340° |
| 2026-05-03 20:31 | -16.43852 | -65.86456 | 38159 ft | 461 kts | 340° |
| 2026-05-03 20:31 | -16.37708 | -65.88371 | 38148 ft | 461 kts | 340° |
| 2026-05-03 20:32 | -16.31565 | -65.90290 | 38135 ft | 461 kts | 340° |
| 2026-05-03 20:32 | -16.25425 | -65.92198 | 38123 ft | 461 kts | 340° |
| 2026-05-03 20:33 | -16.19283 | -65.94110 | 38115 ft | 461 kts | 340° |
| 2026-05-03 20:33 | -16.13133 | -65.96025 | 38104 ft | 461 kts | 340° |
| 2026-05-03 20:34 | -16.07027 | -65.97921 | 38096 ft | 461 kts | 340° |
| 2026-05-03 20:34 | -16.00868 | -65.99824 | 38081 ft | 461 kts | 340° |
| 2026-05-03 20:35 | -15.94717 | -66.01732 | 38078 ft | 461 kts | 340° |
| 2026-05-03 20:35 | -15.88563 | -66.03648 | 38072 ft | 461 kts | 340° |
| 2026-05-03 20:36 | -15.82411 | -66.05557 | 38061 ft | 461 kts | 340° |
| 2026-05-03 20:36 | -15.76252 | -66.07460 | 38053 ft | 462 kts | 340° |
| 2026-05-03 20:37 | -15.70096 | -66.09365 | 38046 ft | 462 kts | 340° |
| 2026-05-03 20:37 | -15.63937 | -66.11280 | 38035 ft | 462 kts | 340° |
| 2026-05-03 20:38 | -15.57813 | -66.13171 | 38029 ft | 462 kts | 340° |
| 2026-05-03 20:38 | -15.51639 | -66.15066 | 38022 ft | 462 kts | 340° |
| 2026-05-03 20:39 | -15.45473 | -66.16966 | 38015 ft | 462 kts | 340° |
| 2026-05-03 20:39 | -15.39309 | -66.18879 | 38004 ft | 462 kts | 340° |
| 2026-05-03 20:40 | -15.33145 | -66.20830 | 37996 ft | 462 kts | 340° |
| 2026-05-03 20:40 | -15.26993 | -66.22776 | 37987 ft | 463 kts | 340° |
| 2026-05-03 20:41 | -15.20832 | -66.24713 | 37981 ft | 463 kts | 340° |
| 2026-05-03 20:41 | -15.14666 | -66.26643 | 37972 ft | 463 kts | 340° |
| 2026-05-03 20:42 | -15.08532 | -66.28564 | 37965 ft | 463 kts | 340° |
| 2026-05-03 20:42 | -15.02366 | -66.30497 | 37956 ft | 463 kts | 340° |
| 2026-05-03 20:43 | -14.96191 | -66.32430 | 37950 ft | 463 kts | 341° |
| 2026-05-03 20:43 | -14.90021 | -66.34358 | 37953 ft | 463 kts | 341° |
| 2026-05-03 20:44 | -14.83848 | -66.36292 | 37951 ft | 464 kts | 341° |
| 2026-05-03 20:44 | -14.77672 | -66.38236 | 37948 ft | 464 kts | 341° |
| 2026-05-03 20:45 | -14.71528 | -66.40146 | 37945 ft | 464 kts | 341° |
| 2026-05-03 20:45 | -14.65346 | -66.42061 | 37940 ft | 464 kts | 341° |
| 2026-05-03 20:46 | -14.59162 | -66.43987 | 37942 ft | 464 kts | 341° |
| 2026-05-03 20:46 | -14.52981 | -66.45920 | 37940 ft | 464 kts | 341° |
| 2026-05-03 20:47 | -14.46790 | -66.47858 | 37939 ft | 465 kts | 341° |
| 2026-05-03 20:47 | -14.40586 | -66.49789 | 37941 ft | 465 kts | 341° |
| 2026-05-03 20:48 | -14.34391 | -66.51717 | 37936 ft | 465 kts | 341° |
| 2026-05-03 20:48 | -14.28198 | -66.53659 | 37936 ft | 465 kts | 341° |
| 2026-05-03 20:49 | -14.22000 | -66.55597 | 37933 ft | 466 kts | 341° |
| 2026-05-03 20:49 | -14.15834 | -66.57511 | 37928 ft | 466 kts | 341° |
| 2026-05-03 20:50 | -14.09624 | -66.59435 | 37925 ft | 466 kts | 341° |
| 2026-05-03 20:50 | -14.03407 | -66.61373 | 37932 ft | 467 kts | 341° |
| 2026-05-03 20:51 | -13.97191 | -66.63305 | 37929 ft | 467 kts | 341° |
| 2026-05-03 20:51 | -13.90968 | -66.65234 | 37929 ft | 467 kts | 341° |
| 2026-05-03 20:52 | -13.84737 | -66.67164 | 37932 ft | 467 kts | 341° |
| 2026-05-03 20:52 | -13.78552 | -66.69088 | 37929 ft | 468 kts | 341° |
| 2026-05-03 20:53 | -13.72322 | -66.71026 | 37930 ft | 468 kts | 341° |
| 2026-05-03 20:53 | -13.66083 | -66.72963 | 37930 ft | 468 kts | 341° |
| 2026-05-03 20:54 | -13.59845 | -66.74898 | 37930 ft | 468 kts | 341° |
| 2026-05-03 20:54 | -13.50480 | -66.77789 | 37930 ft | 469 kts | 342° |
| 2026-05-03 20:55 | -13.44230 | -66.79719 | 37930 ft | 469 kts | 342° |
| 2026-05-03 20:55 | -13.38027 | -66.81639 | 37927 ft | 469 kts | 342° |
| 2026-05-03 20:56 | -13.31774 | -66.83575 | 37930 ft | 469 kts | 342° |
| 2026-05-03 20:56 | -13.25525 | -66.85510 | 37930 ft | 469 kts | 342° |
| 2026-05-03 20:57 | -13.19258 | -66.87445 | 37929 ft | 469 kts | 342° |
| 2026-05-03 20:57 | -13.12999 | -66.89383 | 37931 ft | 470 kts | 342° |
| 2026-05-03 20:58 | -13.06744 | -66.91311 | 37928 ft | 470 kts | 342° |
| 2026-05-03 20:58 | -13.00486 | -66.93257 | 37928 ft | 470 kts | 342° |
| 2026-05-03 20:59 | -12.94233 | -66.95225 | 37931 ft | 470 kts | 341° |
| 2026-05-03 20:59 | -12.87982 | -66.97193 | 37934 ft | 470 kts | 342° |
| 2026-05-03 21:00 | -12.83836 | -66.98488 | 37935 ft | 470 kts | 342° |
| 2026-05-03 21:00 | -12.75503 | -67.01078 | 37932 ft | 470 kts | 342° |
| 2026-05-03 21:01 | -12.69248 | -67.03039 | 37931 ft | 470 kts | 342° |
| 2026-05-03 21:01 | -12.64054 | -67.04669 | 37931 ft | 470 kts | 342° |
| 2026-05-03 21:02 | -12.57802 | -67.06629 | 37932 ft | 470 kts | 342° |
| 2026-05-03 21:02 | -12.51536 | -67.08576 | 37930 ft | 470 kts | 342° |
| 2026-05-03 21:03 | -12.45279 | -67.10524 | 37933 ft | 470 kts | 342° |
| 2026-05-03 21:03 | -12.39067 | -67.12460 | 37934 ft | 470 kts | 342° |
| 2026-05-03 21:04 | -12.32816 | -67.14409 | 37934 ft | 470 kts | 342° |
| 2026-05-03 21:04 | -12.26565 | -67.16362 | 37933 ft | 469 kts | 342° |
| 2026-05-03 21:05 | -12.20315 | -67.18306 | 37935 ft | 469 kts | 342° |
| 2026-05-03 21:05 | -12.14071 | -67.20244 | 37938 ft | 469 kts | 342° |
| 2026-05-03 21:06 | -12.07861 | -67.22176 | 37938 ft | 469 kts | 342° |
| 2026-05-03 21:06 | -12.01615 | -67.24111 | 37936 ft | 468 kts | 342° |
| 2026-05-03 21:07 | -11.95382 | -67.26039 | 37935 ft | 468 kts | 342° |
| 2026-05-03 21:07 | -11.89155 | -67.27970 | 37939 ft | 467 kts | 342° |
| 2026-05-03 21:08 | -11.82934 | -67.29910 | 37938 ft | 467 kts | 342° |
| 2026-05-03 21:08 | -11.76716 | -67.31839 | 37938 ft | 467 kts | 342° |
| 2026-05-03 21:09 | -11.70542 | -67.33747 | 37938 ft | 467 kts | 342° |
| 2026-05-03 21:09 | -11.64331 | -67.35680 | 37935 ft | 466 kts | 342° |
| 2026-05-03 21:10 | -11.58124 | -67.37609 | 37937 ft | 466 kts | 342° |
| 2026-05-03 21:10 | -11.51915 | -67.39519 | 37938 ft | 466 kts | 342° |
| 2026-05-03 21:11 | -11.45709 | -67.41442 | 37936 ft | 466 kts | 342° |
| 2026-05-03 21:11 | -11.39507 | -67.43364 | 37937 ft | 466 kts | 342° |
| 2026-05-03 21:12 | -11.33305 | -67.45273 | 37935 ft | 465 kts | 342° |
| 2026-05-03 21:12 | -11.27148 | -67.47176 | 37937 ft | 465 kts | 342° |
| 2026-05-03 21:13 | -11.20959 | -67.49098 | 37937 ft | 465 kts | 342° |
| 2026-05-03 21:13 | -11.14766 | -67.51015 | 37933 ft | 465 kts | 342° |
| 2026-05-03 21:14 | -11.08569 | -67.52925 | 37937 ft | 465 kts | 343° |
| 2026-05-03 21:14 | -11.02380 | -67.54826 | 37940 ft | 465 kts | 343° |
| 2026-05-03 21:15 | -10.96193 | -67.56736 | 37939 ft | 464 kts | 343° |
| 2026-05-03 21:15 | -10.90007 | -67.58643 | 37936 ft | 464 kts | 343° |
| 2026-05-03 21:16 | -10.83821 | -67.60548 | 37939 ft | 464 kts | 343° |
| 2026-05-03 21:16 | -10.77685 | -67.62439 | 37938 ft | 464 kts | 343° |
| 2026-05-03 21:17 | -10.72548 | -67.64017 | 37936 ft | 464 kts | 343° |
| 2026-05-03 21:17 | -10.65333 | -67.66243 | 37940 ft | 463 kts | 343° |
| 2026-05-03 21:18 | -10.59156 | -67.68146 | 37940 ft | 463 kts | 343° |
| 2026-05-03 21:18 | -10.52993 | -67.70063 | 37936 ft | 463 kts | 343° |
| 2026-05-03 21:19 | -10.46873 | -67.71990 | 37935 ft | 463 kts | 343° |
| 2026-05-03 21:19 | -10.40722 | -67.73931 | 37934 ft | 463 kts | 343° |
| 2026-05-03 21:20 | -10.34564 | -67.75862 | 37936 ft | 463 kts | 343° |
| 2026-05-03 21:20 | -10.28404 | -67.77783 | 37935 ft | 463 kts | 343° |
| 2026-05-03 21:21 | -10.22245 | -67.79706 | 37934 ft | 463 kts | 343° |
| 2026-05-03 21:21 | -10.16083 | -67.81637 | 37929 ft | 463 kts | 343° |
| 2026-05-03 21:22 | -10.09962 | -67.83553 | 37922 ft | 463 kts | 343° |
| 2026-05-03 21:22 | -10.03806 | -67.85482 | 37911 ft | 463 kts | 343° |
| 2026-05-03 21:23 | -9.97652 | -67.87411 | 37906 ft | 463 kts | 343° |
| 2026-05-03 21:23 | -9.91496 | -67.89336 | 37905 ft | 463 kts | 343° |
| 2026-05-03 21:24 | -9.85324 | -67.91235 | 37905 ft | 463 kts | 344° |
| 2026-05-03 21:24 | -9.79119 | -67.93003 | 37905 ft | 463 kts | 345° |
| 2026-05-03 21:25 | -9.72896 | -67.94711 | 37913 ft | 463 kts | 345° |
| 2026-05-03 21:25 | -9.66728 | -67.96429 | 37917 ft | 463 kts | 345° |
| 2026-05-03 21:26 | -9.60519 | -67.98190 | 37927 ft | 463 kts | 345° |
| 2026-05-03 21:26 | -9.54320 | -67.99955 | 37931 ft | 463 kts | 345° |
| 2026-05-03 21:27 | -9.48120 | -68.01714 | 37934 ft | 462 kts | 345° |
| 2026-05-03 21:27 | -9.41923 | -68.03463 | 37931 ft | 462 kts | 345° |
| 2026-05-03 21:28 | -9.35725 | -68.05211 | 37933 ft | 462 kts | 345° |
| 2026-05-03 21:28 | -9.29573 | -68.06946 | 37933 ft | 462 kts | 345° |
| 2026-05-03 21:29 | -9.23376 | -68.08693 | 37932 ft | 462 kts | 345° |
| 2026-05-03 21:29 | -9.17194 | -68.10493 | 37927 ft | 462 kts | 344° |
| 2026-05-03 21:30 | -9.11030 | -68.12363 | 37929 ft | 462 kts | 343° |
| 2026-05-03 21:30 | -9.04857 | -68.14240 | 37927 ft | 463 kts | 343° |
| 2026-05-03 21:31 | -8.98685 | -68.16090 | 37926 ft | 463 kts | 344° |
| 2026-05-03 21:31 | -8.92505 | -68.17935 | 37924 ft | 463 kts | 344° |
| 2026-05-03 21:32 | -8.86319 | -68.19779 | 37926 ft | 463 kts | 344° |
| 2026-05-03 21:32 | -8.80134 | -68.21620 | 37929 ft | 463 kts | 344° |
| 2026-05-03 21:33 | -8.73954 | -68.23465 | 37929 ft | 463 kts | 344° |
| 2026-05-03 21:33 | -8.67814 | -68.25304 | 37931 ft | 463 kts | 344° |
| 2026-05-03 21:34 | -8.61635 | -68.27154 | 37935 ft | 463 kts | 344° |
| 2026-05-03 21:34 | -8.55460 | -68.28992 | 37933 ft | 463 kts | 344° |
| 2026-05-03 21:35 | -8.49284 | -68.30837 | 37931 ft | 462 kts | 344° |
| 2026-05-03 21:35 | -8.43114 | -68.32680 | 37932 ft | 462 kts | 344° |
| 2026-05-03 21:36 | -8.36939 | -68.34521 | 37932 ft | 462 kts | 344° |
| 2026-05-03 21:36 | -8.30806 | -68.36346 | 37929 ft | 462 kts | 344° |
| 2026-05-03 21:37 | -8.24635 | -68.38186 | 37932 ft | 462 kts | 344° |
| 2026-05-03 21:37 | -8.18473 | -68.40021 | 37929 ft | 462 kts | 344° |
| 2026-05-03 21:38 | -8.12311 | -68.41853 | 37930 ft | 461 kts | 344° |
| 2026-05-03 21:38 | -8.06150 | -68.43683 | 37929 ft | 461 kts | 344° |
| 2026-05-03 21:39 | -7.99993 | -68.45519 | 37925 ft | 462 kts | 344° |
| 2026-05-03 21:39 | -7.93867 | -68.47341 | 37923 ft | 462 kts | 344° |
| 2026-05-03 21:40 | -7.87706 | -68.49179 | 37922 ft | 462 kts | 344° |
| 2026-05-03 21:40 | -7.81538 | -68.51004 | 37923 ft | 462 kts | 344° |
| 2026-05-03 21:41 | -7.75367 | -68.52830 | 37921 ft | 462 kts | 344° |
| 2026-05-03 21:41 | -7.69201 | -68.54662 | 37918 ft | 462 kts | 344° |
| 2026-05-03 21:42 | -7.63036 | -68.56501 | 37918 ft | 462 kts | 344° |
| 2026-05-03 21:42 | -7.56868 | -68.58341 | 37918 ft | 462 kts | 344° |
| 2026-05-03 21:43 | -7.50724 | -68.60155 | 37916 ft | 463 kts | 344° |
| 2026-05-03 21:43 | -7.44540 | -68.61977 | 37914 ft | 463 kts | 344° |
| 2026-05-03 21:44 | -7.38344 | -68.63806 | 37914 ft | 463 kts | 344° |
| 2026-05-03 21:44 | -7.32151 | -68.65632 | 37911 ft | 464 kts | 344° |
| 2026-05-03 21:45 | -7.29056 | -68.66546 | 38014 ft | 464 kts | 344° |
| 2026-05-03 21:45 | -7.25964 | -68.67461 | 38170 ft | 463 kts | 344° |
| 2026-05-03 21:45 | -7.22878 | -68.68377 | 38336 ft | 462 kts | 344° |
| 2026-05-03 21:45 | -7.19791 | -68.69291 | 38513 ft | 462 kts | 344° |
| 2026-05-03 21:46 | -7.16713 | -68.70200 | 38627 ft | 461 kts | 344° |
| 2026-05-03 21:46 | -7.13628 | -68.71115 | 38745 ft | 461 kts | 344° |
| 2026-05-03 21:46 | -7.10596 | -68.72012 | 38858 ft | 461 kts | 344° |
| 2026-05-03 21:46 | -7.07520 | -68.72919 | 38970 ft | 460 kts | 344° |
| 2026-05-03 21:47 | -7.04454 | -68.73821 | 39082 ft | 460 kts | 344° |
| 2026-05-03 21:47 | -7.01385 | -68.74725 | 39194 ft | 459 kts | 344° |
| 2026-05-03 21:47 | -6.98317 | -68.75629 | 39307 ft | 458 kts | 344° |
| 2026-05-03 21:47 | -6.95254 | -68.76532 | 39426 ft | 458 kts | 344° |
| 2026-05-03 21:48 | -6.92197 | -68.77433 | 39547 ft | 457 kts | 344° |
| 2026-05-03 21:48 | -6.89144 | -68.78334 | 39659 ft | 456 kts | 344° |
| 2026-05-03 21:48 | -6.86100 | -68.79234 | 39806 ft | 455 kts | 344° |
| 2026-05-03 21:48 | -6.83066 | -68.80131 | 39893 ft | 455 kts | 344° |
| 2026-05-03 21:49 | -6.77013 | -68.81914 | 39907 ft | 459 kts | 344° |
| 2026-05-03 21:49 | -6.70870 | -68.83721 | 39914 ft | 461 kts | 345° |
| 2026-05-03 21:50 | -6.64713 | -68.85539 | 39912 ft | 461 kts | 344° |
| 2026-05-03 21:50 | -6.58548 | -68.87355 | 39912 ft | 461 kts | 345° |
| 2026-05-03 21:51 | -6.52376 | -68.89164 | 39917 ft | 462 kts | 344° |
| 2026-05-03 21:51 | -6.46210 | -68.90988 | 39925 ft | 462 kts | 344° |
| 2026-05-03 21:52 | -6.40039 | -68.92820 | 39932 ft | 463 kts | 344° |
| 2026-05-03 21:52 | -6.33898 | -68.94648 | 39936 ft | 463 kts | 344° |
| 2026-05-03 21:53 | -6.27714 | -68.96477 | 39937 ft | 463 kts | 344° |
| 2026-05-03 21:53 | -6.21532 | -68.98294 | 39939 ft | 463 kts | 344° |
| 2026-05-03 21:54 | -6.15338 | -69.00125 | 39942 ft | 463 kts | 344° |
| 2026-05-03 21:54 | -6.09158 | -69.01962 | 39939 ft | 463 kts | 344° |
| 2026-05-03 21:55 | -6.02965 | -69.03795 | 39937 ft | 464 kts | 344° |
| 2026-05-03 21:55 | -5.96776 | -69.05619 | 39938 ft | 464 kts | 344° |
| 2026-05-03 21:56 | -5.90590 | -69.07452 | 39940 ft | 464 kts | 344° |
| 2026-05-03 21:56 | -5.84399 | -69.09289 | 39940 ft | 464 kts | 344° |
| 2026-05-03 21:57 | -5.78239 | -69.11107 | 39938 ft | 464 kts | 345° |
| 2026-05-03 21:57 | -5.73048 | -69.12632 | 39937 ft | 464 kts | 344° |
| 2026-05-03 21:58 | -5.66843 | -69.14465 | 39936 ft | 465 kts | 345° |
| 2026-05-03 21:58 | -5.60637 | -69.16293 | 39932 ft | 465 kts | 345° |
| 2026-05-03 21:59 | -5.54420 | -69.18128 | 39936 ft | 466 kts | 345° |
| 2026-05-03 21:59 | -5.48203 | -69.19969 | 39937 ft | 466 kts | 345° |
| 2026-05-03 22:00 | -5.41983 | -69.21807 | 39939 ft | 466 kts | 345° |
| 2026-05-03 22:00 | -5.35751 | -69.23643 | 39937 ft | 467 kts | 345° |
| 2026-05-03 22:01 | -5.29523 | -69.25490 | 39942 ft | 467 kts | 345° |
| 2026-05-03 22:01 | -5.23285 | -69.27330 | 39937 ft | 467 kts | 345° |
| 2026-05-03 22:02 | -5.17073 | -69.29158 | 39942 ft | 468 kts | 345° |
| 2026-05-03 22:02 | -5.10822 | -69.31004 | 39941 ft | 468 kts | 345° |
| 2026-05-03 22:03 | -5.04528 | -69.32859 | 39947 ft | 469 kts | 345° |
| 2026-05-03 22:03 | -4.98311 | -69.34685 | 39946 ft | 469 kts | 345° |
| 2026-05-03 22:04 | -4.92053 | -69.36526 | 39948 ft | 469 kts | 345° |
| 2026-05-03 22:04 | -4.85786 | -69.38373 | 39948 ft | 469 kts | 345° |
| 2026-05-03 22:05 | -4.79528 | -69.40218 | 39950 ft | 469 kts | 345° |
| 2026-05-03 22:05 | -4.73270 | -69.42061 | 39955 ft | 468 kts | 345° |
| 2026-05-03 22:06 | -4.67055 | -69.43886 | 39953 ft | 468 kts | 345° |
| 2026-05-03 22:06 | -4.60811 | -69.45759 | 39949 ft | 468 kts | 344° |
| 2026-05-03 22:07 | -4.54561 | -69.47645 | 39948 ft | 468 kts | 344° |
| 2026-05-03 22:07 | -4.48316 | -69.49518 | 39947 ft | 468 kts | 344° |
| 2026-05-03 22:08 | -4.42075 | -69.51393 | 39946 ft | 468 kts | 344° |
| 2026-05-03 22:08 | -4.35875 | -69.53252 | 39947 ft | 468 kts | 344° |
| 2026-05-03 22:09 | -4.29643 | -69.55119 | 39947 ft | 467 kts | 344° |
| 2026-05-03 22:10 | -4.20279 | -69.57919 | 39948 ft | 467 kts | 344° |
| 2026-05-03 22:10 | -4.14053 | -69.59785 | 39941 ft | 467 kts | 344° |
| 2026-05-03 22:11 | -4.07817 | -69.61656 | 39940 ft | 467 kts | 344° |
| 2026-05-03 22:11 | -4.01624 | -69.63509 | 39945 ft | 467 kts | 344° |
| 2026-05-03 22:12 | -3.95388 | -69.65373 | 39945 ft | 467 kts | 344° |
| 2026-05-03 22:12 | -3.89149 | -69.67256 | 39945 ft | 467 kts | 344° |
| 2026-05-03 22:13 | -3.82953 | -69.69117 | 39947 ft | 467 kts | 344° |
| 2026-05-03 22:13 | -3.76720 | -69.70978 | 39947 ft | 467 kts | 344° |
| 2026-05-03 22:14 | -3.70491 | -69.72838 | 39946 ft | 467 kts | 344° |
| 2026-05-03 22:14 | -3.64268 | -69.74702 | 39945 ft | 466 kts | 344° |
| 2026-05-03 22:15 | -3.58053 | -69.76565 | 39944 ft | 466 kts | 344° |
| 2026-05-03 22:15 | -3.51840 | -69.78424 | 39948 ft | 466 kts | 344° |
| 2026-05-03 22:16 | -3.45627 | -69.80287 | 39945 ft | 466 kts | 345° |
| 2026-05-03 22:16 | -3.39411 | -69.82118 | 39942 ft | 465 kts | 345° |
| 2026-05-03 22:17 | -3.33195 | -69.83928 | 39944 ft | 465 kts | 345° |
| 2026-05-03 22:17 | -3.27016 | -69.85734 | 39942 ft | 465 kts | 345° |
| 2026-05-03 22:18 | -3.20808 | -69.87567 | 39943 ft | 465 kts | 344° |
| 2026-05-03 22:18 | -3.14589 | -69.89405 | 39940 ft | 465 kts | 344° |
| 2026-05-03 22:19 | -3.08382 | -69.91228 | 39940 ft | 465 kts | 345° |
| 2026-05-03 22:19 | -3.02161 | -69.93047 | 39941 ft | 465 kts | 345° |
| 2026-05-03 22:20 | -2.95949 | -69.94869 | 39940 ft | 465 kts | 344° |
| 2026-05-03 22:20 | -2.89773 | -69.96686 | 39939 ft | 465 kts | 344° |
| 2026-05-03 22:21 | -2.83555 | -69.98516 | 39940 ft | 466 kts | 344° |
| 2026-05-03 22:21 | -2.77335 | -70.00336 | 39943 ft | 466 kts | 344° |
| 2026-05-03 22:22 | -2.71137 | -70.02216 | 39942 ft | 466 kts | 339° |
| 2026-05-03 22:22 | -2.65245 | -70.04946 | 39937 ft | 467 kts | 335° |
| 2026-05-03 22:23 | -2.59379 | -70.07737 | 39940 ft | 467 kts | 335° |
| 2026-05-03 22:23 | -2.53500 | -70.10516 | 39941 ft | 467 kts | 335° |
| 2026-05-03 22:24 | -2.47623 | -70.13298 | 39941 ft | 468 kts | 335° |
| 2026-05-03 22:24 | -2.41776 | -70.16066 | 39944 ft | 468 kts | 335° |
| 2026-05-03 22:25 | -2.35854 | -70.18861 | 39945 ft | 468 kts | 335° |
| 2026-05-03 22:25 | -2.30003 | -70.21626 | 39948 ft | 468 kts | 335° |
| 2026-05-03 22:26 | -2.24124 | -70.24415 | 39950 ft | 468 kts | 335° |
| 2026-05-03 22:26 | -2.18284 | -70.27181 | 39953 ft | 467 kts | 335° |
| 2026-05-03 22:27 | -2.12405 | -70.29961 | 39948 ft | 467 kts | 335° |
| 2026-05-03 22:27 | -2.06527 | -70.32743 | 39950 ft | 467 kts | 335° |
| 2026-05-03 22:28 | -2.00653 | -70.35525 | 39952 ft | 467 kts | 335° |
| 2026-05-03 22:28 | -1.94788 | -70.38298 | 39953 ft | 466 kts | 335° |
| 2026-05-03 22:29 | -1.88921 | -70.41073 | 39951 ft | 466 kts | 335° |
| 2026-05-03 22:29 | -1.83061 | -70.43850 | 39951 ft | 466 kts | 335° |
| 2026-05-03 22:30 | -1.77198 | -70.46624 | 39952 ft | 466 kts | 335° |
| 2026-05-03 22:30 | -1.71334 | -70.49389 | 39952 ft | 466 kts | 335° |
| 2026-05-03 22:31 | -1.65516 | -70.52141 | 39950 ft | 466 kts | 335° |
| 2026-05-03 22:31 | -1.59651 | -70.54915 | 39951 ft | 466 kts | 335° |
| 2026-05-03 22:32 | -1.53787 | -70.57685 | 39950 ft | 466 kts | 335° |
| 2026-05-03 22:32 | -1.47934 | -70.60454 | 39949 ft | 466 kts | 335° |
| 2026-05-03 22:33 | -1.42079 | -70.63227 | 39949 ft | 465 kts | 335° |
| 2026-05-03 22:33 | -1.36225 | -70.65996 | 39950 ft | 465 kts | 335° |
| 2026-05-03 22:34 | -1.30409 | -70.68736 | 39950 ft | 465 kts | 335° |
| 2026-05-03 22:34 | -1.24555 | -70.71495 | 39951 ft | 465 kts | 335° |
| 2026-05-03 22:35 | -1.18708 | -70.74267 | 39953 ft | 465 kts | 335° |
| 2026-05-03 22:35 | -1.12861 | -70.77036 | 39951 ft | 464 kts | 335° |
| 2026-05-03 22:36 | -1.07016 | -70.79802 | 39952 ft | 464 kts | 335° |
| 2026-05-03 22:36 | -1.01178 | -70.82553 | 39949 ft | 464 kts | 335° |
| 2026-05-03 22:37 | -0.95338 | -70.85313 | 39951 ft | 464 kts | 335° |
| 2026-05-03 22:37 | -0.89508 | -70.88070 | 39954 ft | 464 kts | 335° |
| 2026-05-03 22:38 | -0.83675 | -70.90827 | 39954 ft | 463 kts | 335° |
| 2026-05-03 22:38 | -0.77882 | -70.93562 | 39953 ft | 463 kts | 335° |
| 2026-05-03 22:39 | -0.72055 | -70.96316 | 39952 ft | 463 kts | 335° |
| 2026-05-03 22:39 | -0.66229 | -70.99069 | 39952 ft | 463 kts | 335° |
| 2026-05-03 22:40 | -0.60409 | -71.01820 | 39954 ft | 463 kts | 335° |
| 2026-05-03 22:40 | -0.54588 | -71.04567 | 39950 ft | 462 kts | 335° |
| 2026-05-03 22:41 | -0.48765 | -71.07314 | 39952 ft | 462 kts | 335° |
| 2026-05-03 22:41 | -0.42988 | -71.10043 | 39955 ft | 462 kts | 335° |
| 2026-05-03 22:42 | -0.37181 | -71.12793 | 39960 ft | 462 kts | 335° |
| 2026-05-03 22:42 | -0.31379 | -71.15543 | 39953 ft | 462 kts | 335° |
| 2026-05-03 22:43 | -0.25574 | -71.18284 | 39952 ft | 461 kts | 335° |
| 2026-05-03 22:43 | -0.19754 | -71.21026 | 39955 ft | 461 kts | 335° |
| 2026-05-03 22:44 | -0.13946 | -71.23763 | 39958 ft | 461 kts | 335° |
| 2026-05-03 22:44 | -0.08172 | -71.26492 | 39952 ft | 461 kts | 335° |
| 2026-05-03 22:45 | -0.02366 | -71.29238 | 39956 ft | 461 kts | 335° |
| 2026-05-03 22:45 | 0.03447 | -71.31994 | 39932 ft | 465 kts | 336° |
| 2026-05-03 22:46 | 0.09330 | -71.34785 | 39936 ft | 470 kts | 336° |
| 2026-05-03 22:46 | 0.15280 | -71.37592 | 39934 ft | 473 kts | 336° |
| 2026-05-03 22:47 | 0.21246 | -71.40401 | 39935 ft | 474 kts | 336° |
| 2026-05-03 22:47 | 0.27210 | -71.43213 | 39936 ft | 474 kts | 336° |
| 2026-05-03 22:48 | 0.33144 | -71.46027 | 39941 ft | 475 kts | 336° |
| 2026-05-03 22:48 | 0.39130 | -71.48861 | 39946 ft | 476 kts | 336° |
| 2026-05-03 22:49 | 0.45116 | -71.51687 | 39949 ft | 476 kts | 336° |
| 2026-05-03 22:49 | 0.50099 | -71.54038 | 39954 ft | 476 kts | 336° |
| 2026-05-03 22:50 | 0.56092 | -71.56865 | 39998 ft | 474 kts | 335° |
| 2026-05-03 22:50 | 0.61965 | -71.59637 | 39937 ft | 461 kts | 335° |
| 2026-05-03 22:51 | 0.67745 | -71.62375 | 39934 ft | 459 kts | 335° |
| 2026-05-03 22:51 | 0.73512 | -71.65109 | 39936 ft | 458 kts | 335° |
| 2026-05-03 22:52 | 0.79280 | -71.67825 | 39937 ft | 458 kts | 335° |
| 2026-05-03 22:52 | 0.85003 | -71.70529 | 39943 ft | 458 kts | 335° |
| 2026-05-03 22:53 | 0.90770 | -71.73262 | 39950 ft | 459 kts | 335° |
| 2026-05-03 22:53 | 0.96549 | -71.75993 | 39957 ft | 459 kts | 335° |
| 2026-05-03 22:54 | 1.02324 | -71.78729 | 39960 ft | 459 kts | 335° |
| 2026-05-03 22:54 | 1.08104 | -71.81460 | 39961 ft | 459 kts | 335° |
| 2026-05-03 22:55 | 1.13846 | -71.84178 | 39962 ft | 459 kts | 335° |
| 2026-05-03 22:55 | 1.19624 | -71.86911 | 39963 ft | 459 kts | 335° |
| 2026-05-03 22:56 | 1.25405 | -71.89638 | 39963 ft | 459 kts | 335° |
| 2026-05-03 22:56 | 1.31183 | -71.92365 | 39965 ft | 459 kts | 335° |
| 2026-05-03 22:57 | 1.36898 | -71.95224 | 39964 ft | 460 kts | 330° |
| 2026-05-03 22:57 | 1.42405 | -71.98485 | 39962 ft | 460 kts | 330° |
| 2026-05-03 22:58 | 1.47912 | -72.01746 | 39962 ft | 460 kts | 330° |
| 2026-05-03 22:58 | 1.53427 | -72.05009 | 39966 ft | 461 kts | 330° |
| 2026-05-03 22:59 | 1.58948 | -72.08265 | 39965 ft | 461 kts | 330° |
| 2026-05-03 22:59 | 1.64473 | -72.11526 | 39969 ft | 461 kts | 330° |
| 2026-05-03 23:00 | 1.69998 | -72.14791 | 39971 ft | 461 kts | 330° |
| 2026-05-03 23:00 | 1.75527 | -72.18056 | 39968 ft | 462 kts | 330° |
| 2026-05-03 23:01 | 1.81064 | -72.21324 | 39967 ft | 462 kts | 330° |
| 2026-05-03 23:01 | 1.86596 | -72.24595 | 39968 ft | 462 kts | 330° |
| 2026-05-03 23:02 | 1.92099 | -72.27832 | 39965 ft | 462 kts | 330° |
| 2026-05-03 23:02 | 1.97645 | -72.31099 | 39965 ft | 463 kts | 330° |
| 2026-05-03 23:03 | 2.03189 | -72.34369 | 39966 ft | 463 kts | 330° |
| 2026-05-03 23:03 | 2.08740 | -72.37649 | 39968 ft | 463 kts | 330° |
| 2026-05-03 23:04 | 2.14292 | -72.40932 | 39966 ft | 463 kts | 330° |
| 2026-05-03 23:04 | 2.19840 | -72.44220 | 39964 ft | 464 kts | 330° |
| 2026-05-03 23:05 | 2.25392 | -72.47509 | 39967 ft | 464 kts | 330° |
| 2026-05-03 23:05 | 2.30909 | -72.50772 | 39966 ft | 464 kts | 330° |
| 2026-05-03 23:06 | 2.36467 | -72.54057 | 39956 ft | 464 kts | 330° |
| 2026-05-03 23:06 | 2.42031 | -72.57348 | 39949 ft | 464 kts | 330° |
| 2026-05-03 23:07 | 2.47593 | -72.60637 | 39945 ft | 464 kts | 330° |
| 2026-05-03 23:07 | 2.53161 | -72.63920 | 39941 ft | 464 kts | 331° |
| 2026-05-03 23:08 | 2.58883 | -72.66906 | 39942 ft | 464 kts | 335° |
| 2026-05-03 23:08 | 2.64745 | -72.69622 | 39940 ft | 464 kts | 336° |
| 2026-05-03 23:09 | 2.70603 | -72.72340 | 39952 ft | 464 kts | 335° |
| 2026-05-03 23:09 | 2.76389 | -72.75122 | 39966 ft | 465 kts | 335° |
| 2026-05-03 23:10 | 2.82203 | -72.77962 | 39982 ft | 465 kts | 334° |
| 2026-05-03 23:10 | 2.88021 | -72.80796 | 40004 ft | 465 kts | 335° |
| 2026-05-03 23:11 | 2.93854 | -72.83618 | 40013 ft | 466 kts | 335° |
| 2026-05-03 23:11 | 2.99691 | -72.86435 | 40019 ft | 466 kts | 335° |
| 2026-05-03 23:12 | 3.05532 | -72.89257 | 40023 ft | 466 kts | 335° |
| 2026-05-03 23:12 | 3.11377 | -72.92086 | 40027 ft | 467 kts | 335° |
| 2026-05-03 23:13 | 3.17184 | -72.94897 | 40035 ft | 467 kts | 335° |
| 2026-05-03 23:13 | 3.23041 | -72.97736 | 40039 ft | 467 kts | 335° |
| 2026-05-03 23:14 | 3.28901 | -73.00566 | 40044 ft | 468 kts | 335° |
| 2026-05-03 23:14 | 3.34769 | -73.03396 | 40051 ft | 468 kts | 335° |
| 2026-05-03 23:15 | 3.40641 | -73.06234 | 40056 ft | 469 kts | 335° |
| 2026-05-03 23:15 | 3.46515 | -73.09077 | 40060 ft | 469 kts | 335° |
| 2026-05-03 23:16 | 3.52393 | -73.11927 | 40066 ft | 469 kts | 335° |
| 2026-05-03 23:16 | 3.58238 | -73.14760 | 40073 ft | 469 kts | 335° |
| 2026-05-03 23:17 | 3.64124 | -73.17606 | 40079 ft | 469 kts | 335° |
| 2026-05-03 23:17 | 3.70007 | -73.20462 | 40083 ft | 469 kts | 335° |
| 2026-05-03 23:18 | 3.75886 | -73.23313 | 40093 ft | 470 kts | 335° |
| 2026-05-03 23:18 | 3.81769 | -73.26158 | 40096 ft | 470 kts | 335° |
| 2026-05-03 23:19 | 3.87659 | -73.29008 | 40103 ft | 470 kts | 335° |
| 2026-05-03 23:19 | 3.93512 | -73.31846 | 40106 ft | 470 kts | 335° |
| 2026-05-03 23:20 | 3.99441 | -73.34724 | 40096 ft | 470 kts | 335° |
| 2026-05-03 23:20 | 4.05073 | -73.37952 | 40072 ft | 472 kts | 322° |
| 2026-05-03 23:21 | 4.09452 | -73.42825 | 39930 ft | 474 kts | 302° |
| 2026-05-03 23:21 | 4.11161 | -73.45642 | 39676 ft | 474 kts | 302° |
| 2026-05-03 23:21 | 4.12861 | -73.48471 | 39408 ft | 474 kts | 302° |
| 2026-05-03 23:21 | 4.14566 | -73.51309 | 39063 ft | 475 kts | 302° |
| 2026-05-03 23:22 | 4.17975 | -73.56974 | 37796 ft | 474 kts | 302° |
| 2026-05-03 23:22 | 4.19678 | -73.59797 | 37140 ft | 473 kts | 302° |
| 2026-05-03 23:22 | 4.21381 | -73.62618 | 36404 ft | 474 kts | 302° |
| 2026-05-03 23:23 | 4.23139 | -73.65426 | 35586 ft | 477 kts | 306° |
| 2026-05-03 23:23 | 4.25217 | -73.67973 | 34743 ft | 481 kts | 314° |
| 2026-05-03 23:23 | 4.27665 | -73.70294 | 33850 ft | 486 kts | 318° |
| 2026-05-03 23:23 | 4.30179 | -73.72597 | 32964 ft | 490 kts | 318° |
| 2026-05-03 23:24 | 4.32701 | -73.74914 | 32028 ft | 494 kts | 318° |
| 2026-05-03 23:24 | 4.35211 | -73.77236 | 31524 ft | 488 kts | 317° |
| 2026-05-03 23:24 | 4.37693 | -73.79539 | 30902 ft | 485 kts | 317° |
| 2026-05-03 23:24 | 4.40165 | -73.81829 | 30283 ft | 483 kts | 318° |
| 2026-05-03 23:25 | 4.42623 | -73.84101 | 29611 ft | 479 kts | 318° |
| 2026-05-03 23:25 | 4.45062 | -73.86351 | 29027 ft | 473 kts | 318° |
| 2026-05-03 23:25 | 4.47469 | -73.88575 | 28392 ft | 469 kts | 318° |
| 2026-05-03 23:25 | 4.49852 | -73.90785 | 27775 ft | 465 kts | 318° |
| 2026-05-03 23:26 | 4.52205 | -73.92970 | 27428 ft | 455 kts | 318° |
| 2026-05-03 23:26 | 4.54435 | -73.95037 | 27286 ft | 441 kts | 318° |
| 2026-05-03 23:26 | 4.56663 | -73.97098 | 26928 ft | 433 kts | 318° |
| 2026-05-03 23:26 | 4.58872 | -73.99140 | 26458 ft | 428 kts | 318° |
| 2026-05-03 23:27 | 4.61161 | -74.01018 | 25965 ft | 423 kts | 327° |
| 2026-05-03 23:27 | 4.63647 | -74.02574 | 25469 ft | 420 kts | 329° |
| 2026-05-03 23:27 | 4.66127 | -74.04106 | 24967 ft | 417 kts | 329° |
| 2026-05-03 23:27 | 4.68592 | -74.05628 | 24472 ft | 415 kts | 330° |
| 2026-05-03 23:28 | 4.71046 | -74.07143 | 23986 ft | 413 kts | 330° |
| 2026-05-03 23:28 | 4.73480 | -74.08650 | 23442 ft | 410 kts | 330° |
| 2026-05-03 23:28 | 4.75904 | -74.10151 | 22917 ft | 407 kts | 330° |
| 2026-05-03 23:28 | 4.78307 | -74.11638 | 22430 ft | 404 kts | 330° |
| 2026-05-03 23:29 | 4.80692 | -74.13114 | 21962 ft | 401 kts | 330° |
| 2026-05-03 23:29 | 4.83060 | -74.14581 | 21475 ft | 399 kts | 330° |
| 2026-05-03 23:29 | 4.85412 | -74.16039 | 21032 ft | 396 kts | 330° |
| 2026-05-03 23:29 | 4.87747 | -74.17487 | 20592 ft | 393 kts | 330° |
| 2026-05-03 23:30 | 4.90063 | -74.18923 | 20145 ft | 390 kts | 330° |
| 2026-05-03 23:30 | 4.92333 | -74.20333 | 20017 ft | 378 kts | 330° |
| 2026-05-03 23:30 | 4.94508 | -74.21721 | 19711 ft | 365 kts | 325° |
| 2026-05-03 23:30 | 4.96368 | -74.23416 | 19110 ft | 360 kts | 313° |
| 2026-05-03 23:31 | 4.98036 | -74.25262 | 18639 ft | 349 kts | 314° |
| 2026-05-03 23:31 | 4.99457 | -74.27132 | 18513 ft | 329 kts | 298° |
| 2026-05-03 23:31 | 5.00369 | -74.29138 | 18367 ft | 311 kts | 294° |
| 2026-05-03 23:31 | 5.01213 | -74.31080 | 18149 ft | 297 kts | 294° |
| 2026-05-03 23:32 | 5.01999 | -74.32971 | 17787 ft | 291 kts | 285° |
| 2026-05-03 23:32 | 5.02073 | -74.34934 | 17636 ft | 279 kts | 253° |
| 2026-05-03 23:32 | 5.01332 | -74.36694 | 17381 ft | 272 kts | 234° |
| 2026-05-03 23:32 | 5.00140 | -74.38138 | 17125 ft | 266 kts | 218° |
| 2026-05-03 23:33 | 4.98644 | -74.39191 | 16867 ft | 260 kts | 202° |
| 2026-05-03 23:33 | 4.97000 | -74.39796 | 16573 ft | 247 kts | 194° |
| 2026-05-03 23:33 | 4.95355 | -74.40303 | 16030 ft | 246 kts | 194° |
| 2026-05-03 23:33 | 4.93720 | -74.40672 | 15527 ft | 242 kts | 180° |
| 2026-05-03 23:34 | 4.92074 | -74.40538 | 15071 ft | 235 kts | 163° |
| 2026-05-03 23:34 | 4.90588 | -74.39916 | 14579 ft | 230 kts | 146° |
| 2026-05-03 23:34 | 4.89366 | -74.38901 | 14083 ft | 228 kts | 132° |
| 2026-05-03 23:34 | 4.88350 | -74.37699 | 13633 ft | 223 kts | 127° |
| 2026-05-03 23:35 | 4.87431 | -74.36492 | 13339 ft | 214 kts | 126° |
| 2026-05-03 23:35 | 4.86549 | -74.35320 | 13076 ft | 204 kts | 126° |
| 2026-05-03 23:35 | 4.85722 | -74.34226 | 12833 ft | 187 kts | 127° |
| 2026-05-03 23:35 | 4.84966 | -74.33226 | 12567 ft | 174 kts | 127° |
| 2026-05-03 23:36 | 4.84171 | -74.32327 | 12301 ft | 172 kts | 134° |
| 2026-05-03 23:36 | 4.83276 | -74.31540 | 12073 ft | 171 kts | 141° |
| 2026-05-03 23:36 | 4.82303 | -74.30860 | 11824 ft | 170 kts | 145° |
| 2026-05-03 23:36 | 4.81387 | -74.30121 | 11623 ft | 169 kts | 135° |
| 2026-05-03 23:37 | 4.80609 | -74.29246 | 11467 ft | 168 kts | 128° |
| 2026-05-03 23:37 | 4.79877 | -74.28330 | 11350 ft | 168 kts | 128° |
| 2026-05-03 23:37 | 4.79146 | -74.27411 | 11240 ft | 169 kts | 128° |
| 2026-05-03 23:37 | 4.78415 | -74.26488 | 11138 ft | 169 kts | 128° |
| 2026-05-03 23:38 | 4.77696 | -74.25579 | 11002 ft | 169 kts | 128° |
| 2026-05-03 23:38 | 4.76971 | -74.24658 | 10827 ft | 168 kts | 128° |
| 2026-05-03 23:38 | 4.76249 | -74.23737 | 10591 ft | 168 kts | 127° |
| 2026-05-03 23:38 | 4.75539 | -74.22808 | 10259 ft | 167 kts | 126° |
| 2026-05-03 23:39 | 4.74848 | -74.21872 | 9889 ft | 167 kts | 127° |
| 2026-05-03 23:39 | 4.74132 | -74.20962 | 9512 ft | 166 kts | 128° |
| 2026-05-03 23:39 | 4.73432 | -74.20045 | 9234 ft | 166 kts | 127° |
| 2026-05-03 23:39 | 4.72869 | -74.19267 | 9019 ft | 168 kts | 126° |
| 2026-05-03 23:40 | 4.72174 | -74.18308 | 8797 ft | 171 kts | 129° |
| 2026-05-03 23:40 | 4.71431 | -74.17373 | 8565 ft | 172 kts | 131° |
| 2026-05-03 23:40 | 4.70675 | -74.16419 | 8398 ft | 171 kts | 126° |
| 2026-05-03 23:40 | 4.70023 | -74.15554 | 8372 ft | 138 kts | 130° |
| 2026-05-03 23:41 | 4.69623 | -74.15026 | 8371 ft | 56 kts | 126° |
| 2026-05-03 23:41 | 4.69400 | -74.14734 | 8369 ft | 49 kts | 127° |
| 2026-05-03 23:41 | 4.69344 | -74.14620 | 8370 ft | 2 kts | 41° |
| 2026-05-03 23:41 | 4.69363 | -74.14607 | 8370 ft | 8 kts | 32° |
| 2026-05-03 23:42 | 4.69412 | -74.14578 | 8370 ft | 4 kts | 29° |
| 2026-05-03 23:42 | 4.69457 | -74.14553 | 8370 ft | 10 kts | 31° |
| 2026-05-03 23:42 | 4.69512 | -74.14539 | 8370 ft | 8 kts | 346° |
| 2026-05-03 23:42 | 4.69560 | -74.14583 | 8370 ft | 10 kts | 306° |
| 2026-05-03 23:43 | 4.69604 | -74.14644 | 8370 ft | 11 kts | 306° |
| 2026-05-03 23:43 | 4.69635 | -74.14689 | 8370 ft | 12 kts | 306° |
| 2026-05-03 23:43 | 4.69686 | -74.14756 | 8370 ft | 13 kts | 306° |
| 2026-05-03 23:43 | 4.69761 | -74.14808 | 8370 ft | 14 kts | 15° |
| 2026-05-03 23:44 | 4.69846 | -74.14753 | 8370 ft | 15 kts | 35° |
| 2026-05-03 23:44 | 4.69928 | -74.14692 | 8370 ft | 15 kts | 37° |
| 2026-05-03 23:44 | 4.70010 | -74.14630 | 8370 ft | 15 kts | 37° |
| 2026-05-03 23:44 | 4.70091 | -74.14570 | 8370 ft | 14 kts | 38° |
| 2026-05-03 23:45 | 4.70169 | -74.14510 | 8370 ft | 14 kts | 37° |
| 2026-05-03 23:45 | 4.70244 | -74.14453 | 8370 ft | 13 kts | 37° |
| 2026-05-03 23:45 | 4.70316 | -74.14398 | 8370 ft | 13 kts | 37° |
| 2026-05-03 23:45 | 4.70349 | -74.14346 | 8370 ft | 8 kts | 130° |
| 2026-05-03 23:46 | 4.70315 | -74.14301 | 8370 ft | 7 kts | 126° |
| 2026-05-03 23:46 | 4.70289 | -74.14266 | 8370 ft | 7 kts | 126° |
| 2026-05-03 23:46 | 4.70255 | -74.14219 | 8370 ft | 8 kts | 126° |
| 2026-05-03 23:46 | 4.70225 | -74.14193 | 8370 ft | 3 kts | 186° |
| 2026-05-03 23:47 | 4.70205 | -74.14209 | 8370 ft | 6 kts | 221° |
| 2026-05-03 23:47 | 4.70165 | -74.14254 | 8370 ft | 10 kts | 227° |
| 2026-05-03 23:47 | 4.70138 | -74.14304 | 8370 ft | 5 kts | 219° |
| 2026-05-03 23:47 | 4.70121 | -74.14317 | 8370 ft | 0 kts | 217° |